createdAt,value
2022-12-31T00:00:20.203Z,1014.7
2022-12-31T00:05:20.113Z,1014.7
2022-12-31T00:10:20.117Z,1014.7
2022-12-31T00:15:20.102Z,1014.8
2022-12-31T00:20:20.122Z,1014.9
2022-12-31T00:25:20.157Z,1015
2022-12-31T00:30:20.115Z,1015
2022-12-31T00:35:20.111Z,1015
2022-12-31T00:40:20.107Z,1015
2022-12-31T00:45:20.106Z,1015
2022-12-31T00:50:20.109Z,1015.1
2022-12-31T00:55:20.111Z,1015.2
2022-12-31T01:00:20.104Z,1015.2
2022-12-31T01:05:20.137Z,1015.2
2022-12-31T01:10:20.108Z,1015.2
2022-12-31T01:15:20.117Z,1015.2
2022-12-31T01:20:20.115Z,1015.4
2022-12-31T01:25:20.116Z,1015.5
2022-12-31T01:30:20.102Z,1015.5
2022-12-31T01:35:20.113Z,1015.5
2022-12-31T01:40:20.112Z,1015.7
2022-12-31T01:45:20.103Z,1015.8
2022-12-31T01:50:20.092Z,1015.7
2022-12-31T01:55:20.118Z,1015.8
2022-12-31T02:00:20.095Z,1015.9
2022-12-31T02:05:20.101Z,1015.9
2022-12-31T02:10:20.110Z,1016
2022-12-31T02:15:20.118Z,1015.8
2022-12-31T02:20:20.114Z,1015.9
2022-12-31T02:25:20.109Z,1015.9
2022-12-31T02:30:20.096Z,1015.9
2022-12-31T02:35:20.101Z,1015.9
2022-12-31T02:40:20.086Z,1015.9
2022-12-31T02:45:20.087Z,1016
2022-12-31T02:50:20.087Z,1016
2022-12-31T02:55:20.104Z,1016
2022-12-31T03:00:20.092Z,1015.9
2022-12-31T03:05:20.096Z,1015.9
2022-12-31T03:10:20.088Z,1015.9
2022-12-31T03:15:20.489Z,1015.9
2022-12-31T03:20:20.085Z,1015.9
2022-12-31T03:25:20.091Z,1015.8
2022-12-31T03:30:20.087Z,1015.8
2022-12-31T03:35:20.095Z,1015.8
2022-12-31T03:40:20.089Z,1015.8
2022-12-31T03:45:20.106Z,1015.8
2022-12-31T03:50:20.094Z,1015.9
2022-12-31T03:55:20.099Z,1016
2022-12-31T04:00:20.090Z,1015.8
2022-12-31T04:05:20.094Z,1015.8
2022-12-31T04:10:20.113Z,1015.9
2022-12-31T04:15:20.094Z,1016
2022-12-31T04:20:20.109Z,1016.1
2022-12-31T04:25:20.100Z,1016
2022-12-31T04:30:20.087Z,1016.1
2022-12-31T04:35:20.102Z,1016.1
2022-12-31T04:40:20.090Z,1016.1
2022-12-31T04:45:20.111Z,1016.1
2022-12-31T04:50:20.105Z,1016.2
2022-12-31T04:55:20.086Z,1016.3
2022-12-31T05:00:20.096Z,1016.3
2022-12-31T05:05:20.099Z,1016.3
2022-12-31T05:10:20.100Z,1016.3
2022-12-31T05:15:20.107Z,1016.2
2022-12-31T05:20:20.120Z,1016.1
2022-12-31T05:25:20.108Z,1016.3
2022-12-31T05:30:20.091Z,1016.1
2022-12-31T05:35:20.095Z,1016.1
2022-12-31T05:40:20.117Z,1016.1
2022-12-31T05:45:22.807Z,1016.1
2022-12-31T05:50:20.100Z,1016.3
2022-12-31T05:55:20.119Z,1016.5
2022-12-31T06:00:20.106Z,1016.5
2022-12-31T06:05:25.795Z,1016.5
2022-12-31T06:10:20.098Z,1016.4
2022-12-31T06:15:20.110Z,1016.5
2022-12-31T06:20:20.107Z,1016.4
2022-12-31T06:25:20.103Z,1016.5
2022-12-31T06:30:20.091Z,1016.3
2022-12-31T06:35:20.101Z,1016.3
2022-12-31T06:40:20.133Z,1016.4
2022-12-31T06:45:20.118Z,1016.7
2022-12-31T06:50:20.100Z,1016.6
2022-12-31T06:55:20.104Z,1016.7
2022-12-31T07:00:20.095Z,1016.7
2022-12-31T07:05:20.100Z,1016.8
2022-12-31T07:10:24.088Z,1016.9
2022-12-31T07:15:20.087Z,1017.1
2022-12-31T07:20:20.094Z,1017
2022-12-31T07:25:20.090Z,1017
2022-12-31T07:30:20.086Z,1017.1
2022-12-31T07:35:20.090Z,1017.2
2022-12-31T07:40:20.092Z,1017.2
2022-12-31T07:45:20.113Z,1017.2
2022-12-31T07:50:20.085Z,1017.2
2022-12-31T07:55:20.089Z,1017.4
2022-12-31T08:00:20.091Z,1017.3
2022-12-31T08:05:20.094Z,1017.3
2022-12-31T08:10:20.085Z,1017.5
2022-12-31T08:15:22.031Z,1017.5
2022-12-31T08:20:20.103Z,1017.5
2022-12-31T08:25:20.091Z,1017.6
2022-12-31T08:30:20.097Z,1017.7
2022-12-31T08:35:20.091Z,1017.7
2022-12-31T08:40:20.112Z,1017.7
2022-12-31T08:45:20.092Z,1017.8
2022-12-31T08:50:20.094Z,1017.8
2022-12-31T08:55:20.098Z,1017.8
2022-12-31T09:00:20.109Z,1017.8
2022-12-31T09:05:20.097Z,1017.9
2022-12-31T09:10:20.080Z,1018
2022-12-31T09:15:20.089Z,1018
2022-12-31T09:20:20.107Z,1018.1
2022-12-31T09:25:20.106Z,1018.1
2022-12-31T09:30:20.088Z,1018.2
2022-12-31T09:35:20.109Z,1018.1
2022-12-31T09:40:20.242Z,1018.3
2022-12-31T09:45:20.091Z,1018.2
2022-12-31T09:50:20.187Z,1018.1
2022-12-31T09:55:20.089Z,1018.1
2022-12-31T10:00:20.137Z,1018.1
2022-12-31T10:05:20.083Z,1018.1
2022-12-31T10:10:20.080Z,1018.2
2022-12-31T10:15:20.084Z,1018.2
2022-12-31T10:20:20.086Z,1018.3
2022-12-31T10:25:20.101Z,1018.3
2022-12-31T10:30:20.097Z,1018.3
2022-12-31T10:35:20.096Z,1018.2
2022-12-31T10:40:20.097Z,1018.3
2022-12-31T10:45:20.079Z,1018.3
2022-12-31T10:50:20.082Z,1018.3
2022-12-31T10:55:20.108Z,1018.1
2022-12-31T11:00:20.111Z,1018.1
2022-12-31T11:05:20.091Z,1018.2
2022-12-31T11:10:20.095Z,1018.1
2022-12-31T11:15:20.093Z,1018.2
2022-12-31T11:20:20.090Z,1018.2
2022-12-31T11:25:20.097Z,1018.4
2022-12-31T11:30:20.085Z,1018.3
2022-12-31T11:35:20.104Z,1018.2
2022-12-31T11:40:20.092Z,1018.3
2022-12-31T11:45:20.092Z,1018.3
2022-12-31T11:50:20.091Z,1018.2
2022-12-31T11:55:20.095Z,1018.2
2022-12-31T12:00:20.079Z,1018.3
2022-12-31T12:05:20.087Z,1018.3
2022-12-31T12:10:20.084Z,1018.2
2022-12-31T12:15:20.086Z,1018.3
2022-12-31T12:20:20.088Z,1018.3
2022-12-31T12:25:20.106Z,1018.2
2022-12-31T12:30:20.082Z,1018.2
2022-12-31T12:35:20.124Z,1018.2
2022-12-31T12:40:20.099Z,1018.2
2022-12-31T12:45:20.089Z,1018.2
2022-12-31T12:50:20.090Z,1018.2
2022-12-31T12:55:20.109Z,1018.1
2022-12-31T13:00:20.096Z,1018.1
2022-12-31T13:05:24.470Z,1018
2022-12-31T13:10:20.136Z,1018
2022-12-31T13:15:20.093Z,1017.9
2022-12-31T13:20:20.089Z,1017.9
2022-12-31T13:25:20.091Z,1017.9
2022-12-31T13:30:20.085Z,1017.8
2022-12-31T13:35:20.087Z,1017.8
2022-12-31T13:40:20.080Z,1017.9
2022-12-31T13:45:20.088Z,1017.9
2022-12-31T13:50:20.098Z,1017.8
2022-12-31T13:55:20.091Z,1017.8
2022-12-31T14:00:20.095Z,1017.8
2022-12-31T14:05:20.094Z,1017.8
2022-12-31T14:10:20.091Z,1017.9
2022-12-31T14:15:20.087Z,1018
2022-12-31T14:20:20.090Z,1018.1
2022-12-31T14:25:20.094Z,1018
2022-12-31T14:30:20.097Z,1018
2022-12-31T14:35:20.097Z,1018
2022-12-31T14:40:20.100Z,1017.9
2022-12-31T14:45:20.084Z,1018
2022-12-31T14:50:20.090Z,1017.9
2022-12-31T14:55:20.099Z,1018
2022-12-31T15:00:20.086Z,1018
2022-12-31T15:05:20.107Z,1017.9
2022-12-31T15:10:20.091Z,1018
2022-12-31T15:15:20.090Z,1018
2022-12-31T15:20:20.081Z,1018
2022-12-31T15:25:20.090Z,1018.1
2022-12-31T15:30:20.091Z,1018.1
2022-12-31T15:35:20.095Z,1018.1
2022-12-31T15:40:20.099Z,1018.2
2022-12-31T15:45:20.095Z,1018.3
2022-12-31T15:50:20.088Z,1018.4
2022-12-31T15:55:20.096Z,1018.4
2022-12-31T16:00:20.083Z,1018.5
2022-12-31T16:05:20.100Z,1018.6
2022-12-31T16:10:20.085Z,1018.5
2022-12-31T16:15:20.113Z,1018.6
2022-12-31T16:20:20.099Z,1018.5
2022-12-31T16:25:30.513Z,1018.6
2022-12-31T16:30:20.094Z,1018.6
2022-12-31T16:35:23.289Z,1018.6
2022-12-31T16:40:20.099Z,1018.5
2022-12-31T16:45:20.103Z,1018.6
2022-12-31T16:50:20.096Z,1018.6
2022-12-31T16:55:20.096Z,1018.5
2022-12-31T17:00:20.092Z,1018.4
2022-12-31T17:05:20.102Z,1018.4
2022-12-31T17:10:20.088Z,1018.4
2022-12-31T17:15:20.097Z,1018.5
2022-12-31T17:20:20.090Z,1018.7
2022-12-31T17:25:20.103Z,1018.7
2022-12-31T17:30:20.102Z,1018.6
2022-12-31T17:35:20.104Z,1018.7
2022-12-31T17:40:50.189Z,1018.7
2022-12-31T17:45:20.108Z,1018.7
2022-12-31T17:50:20.097Z,1018.7
2022-12-31T17:55:20.097Z,1018.7
2022-12-31T18:00:20.085Z,1018.7
2022-12-31T18:05:20.098Z,1018.7
2022-12-31T18:10:20.098Z,1018.7
2022-12-31T18:15:20.091Z,1018.7
2022-12-31T18:20:20.106Z,1018.8
2022-12-31T18:25:20.095Z,1018.9
2022-12-31T18:30:20.086Z,1018.9
2022-12-31T18:35:57.983Z,1019
2022-12-31T18:40:20.083Z,1019
2022-12-31T18:45:20.101Z,1019
2022-12-31T18:50:20.092Z,1019.1
2022-12-31T18:55:20.087Z,1019
2022-12-31T19:00:20.091Z,1019
2022-12-31T19:05:20.104Z,1019.1
2022-12-31T19:10:20.090Z,1019
2022-12-31T19:15:20.103Z,1019
2022-12-31T19:20:20.093Z,1019.1
2022-12-31T19:25:20.098Z,1019.1
2022-12-31T19:30:20.085Z,1019.1
2022-12-31T19:35:20.095Z,1019.1
2022-12-31T19:40:20.094Z,1019.2
2022-12-31T19:45:20.097Z,1019.3
2022-12-31T19:50:20.088Z,1019.3
2022-12-31T19:55:20.096Z,1019.5
2022-12-31T20:00:20.085Z,1019.4
2022-12-31T20:05:20.097Z,1019.5
2022-12-31T20:10:20.114Z,1019.6
2022-12-31T20:15:20.110Z,1019.6
2022-12-31T20:20:20.110Z,1019.6
2022-12-31T20:25:20.117Z,1019.6
2022-12-31T20:30:20.101Z,1019.6
2022-12-31T20:35:20.107Z,1019.6
2022-12-31T20:40:20.110Z,1019.6
2022-12-31T20:45:20.109Z,1019.5
2022-12-31T20:50:20.110Z,1019.5
2022-12-31T20:55:20.124Z,1019.5
2022-12-31T21:00:20.096Z,1019.5
2022-12-31T21:05:20.243Z,1019.5
2022-12-31T21:10:20.089Z,1019.4
2022-12-31T21:15:20.100Z,1019.5
2022-12-31T21:20:20.094Z,1019.5
2022-12-31T21:25:20.090Z,1019.6
2022-12-31T21:30:20.492Z,1019.6
2022-12-31T21:40:20.091Z,1019.8
2022-12-31T21:45:20.111Z,1019.7
2022-12-31T21:50:20.099Z,1019.7
2022-12-31T21:55:20.104Z,1019.8
2022-12-31T22:00:42.916Z,1019.9
2022-12-31T22:05:25.053Z,1019.9
2022-12-31T22:10:20.095Z,1019.9
2022-12-31T22:15:20.108Z,1019.9
2022-12-31T22:20:28.065Z,1019.9
2022-12-31T22:25:20.098Z,1020
2022-12-31T22:30:20.100Z,1020.1
2022-12-31T22:35:20.105Z,1020.1
2022-12-31T22:40:20.088Z,1020.1
2022-12-31T22:45:20.095Z,1020.1
2022-12-31T22:50:20.092Z,1020.1
2022-12-31T22:55:20.103Z,1020.2
2022-12-31T23:00:20.096Z,1020.2
2022-12-31T23:05:20.105Z,1020.2
2022-12-31T23:10:20.086Z,1020.3
2022-12-31T23:15:20.100Z,1020.3
2022-12-31T23:20:20.087Z,1020.4
2022-12-31T23:25:20.094Z,1020.4
2022-12-31T23:30:20.094Z,1020.5
2022-12-31T23:35:20.100Z,1020.5
2022-12-31T23:40:21.689Z,1020.5
2022-12-31T23:45:20.091Z,1020.5
2022-12-31T23:50:20.093Z,1020.5
2022-12-31T23:55:20.098Z,1020.6
